Time;durP1;ratioP1;P1;durP2;ratioP2;P2;SDS_P1;SDS_P2;PMS_P1;PMS_P2;Temp;Humidity;BMP_temperature;BMP_pressure;BME280_temperature;BME280_humidity;BME280_pressure;Samples;Min_cycle;Max_cycle;Signal;HPM_P1;HPM_P2
2023/06/25 00:01:24;;;;;;;;;;;;;;;-140.72;100.00;52325.94;4990131;28;19928;-68
2023/06/25 00:03:50;;;;;;;;;;;;;;;-140.72;100.00;52352.31;4988488;28;19922;-68
2023/06/25 00:06:15;;;;;;;;;;;;;;;-140.72;100.00;52309.69;4987934;28;19945;-68
2023/06/25 00:08:40;;;;;;;;;;;;;;;-140.72;100.00;52323.91;4967612;28;19930;-69
2023/06/25 00:11:06;;;;;;;;;;;;;;;-140.72;100.00;52311.72;4990887;28;20014;-69
2023/06/25 00:13:31;;;;;;;;;;;;;;;-140.72;100.00;52319.84;4988854;28;19922;-68
2023/06/25 00:15:56;;;;;;;;;;;;;;;-140.72;100.00;52313.75;4988384;28;19993;-69
2023/06/25 00:18:25;;;;;;;;;;;;;;;-140.72;100.00;52360.44;4982643;28;19922;-68
2023/06/25 00:20:50;;;;;;;;;;;;;;;-140.72;100.00;52346.22;4987496;28;20361;-69
2023/06/25 00:23:16;;;;;;;;;;;;;;;-140.72;100.00;52311.72;4986145;28;20016;-69
2023/06/25 00:25:41;;;;;;;;;;;;;;;-140.72;100.00;52342.16;4990296;28;19933;-68
2023/06/25 00:28:08;;;;;;;;;;;;;;;-140.72;100.00;52330.00;4991287;28;20294;-68
2023/06/25 00:30:34;;;;;;;;;;;;;;;-140.72;100.00;52321.88;4989988;28;19934;-69
2023/06/25 00:33:00;;;;;;;;;;;;;;;-140.72;100.00;52321.88;4986486;28;20048;-69
2023/06/25 00:35:28;;;;;;;;;;;;;;;-140.72;100.00;52338.09;4990284;28;20005;-69
2023/06/25 00:38:01;;;;;;;;;;;;;;;-140.72;100.00;52321.88;4988372;28;19929;-68
2023/06/25 00:40:26;;;;;;;;;;;;;;;-140.72;100.00;52336.06;4988877;28;20402;-69
2023/06/25 00:42:56;;;;;;;;;;;;;;;-140.72;100.00;52334.03;4990664;28;19922;-69
2023/06/25 00:45:24;;;;;;;;;;;;;;;-140.72;100.00;52295.50;4988428;28;20635;-69
2023/06/25 00:47:50;;;;;;;;;;;;;;;-140.72;100.00;52323.91;4986250;28;20276;-68
2023/06/25 00:50:15;;;;;;;;;;;;;;;-140.72;100.00;52338.09;4987622;28;19933;-68
2023/06/25 00:52:40;;;;;;;;;;;;;;;-140.72;100.00;52342.16;4987193;28;19921;-69
2023/06/25 00:55:08;;;;;;;;;;;;;;;-140.72;100.00;52321.88;4988438;28;20459;-69
2023/06/25 00:57:33;;;;;;;;;;;;;;;-140.72;100.00;52299.56;4988457;28;19926;-69
2023/06/25 00:59:58;;;;;;;;;;;;;;;-140.72;100.00;52362.44;4988323;28;20472;-68
2023/06/25 01:02:43;;;;;;;;;;;;;;;-140.72;100.00;52334.03;4987698;28;20423;-69
2023/06/25 01:05:21;;;;;;;;;;;;;;;-140.72;100.00;52346.22;4988027;28;19926;-69
2023/06/25 01:07:47;;;;;;;;;;;;;;;-140.72;100.00;52358.41;4972966;28;19976;-68
2023/06/25 01:10:13;;;;;;;;;;;;;;;-140.72;100.00;52325.94;4986688;28;19926;-69
2023/06/25 01:12:39;;;;;;;;;;;;;;;-140.72;100.00;52330.00;4989385;28;19925;-69
2023/06/25 01:15:04;;;;;;;;;;;;;;;-140.72;100.00;52342.16;4986433;28;20292;-69
2023/06/25 01:17:30;;;;;;;;;;;;;;;-140.72;100.00;52370.56;4989368;28;19965;-68
2023/06/25 01:19:55;;;;;;;;;;;;;;;-140.72;100.00;52342.16;4993271;28;19981;-68
2023/06/25 01:22:28;;;;;;;;;;;;;;;-140.72;100.00;52327.97;4992144;28;19935;-69
2023/06/25 01:24:53;;;;;;;;;;;;;;;-140.72;100.00;52323.91;4987514;28;19933;-68
2023/06/25 01:27:21;;;;;;;;;;;;;;;-140.72;100.00;52382.75;4986110;28;19921;-69
2023/06/25 01:29:48;;;;;;;;;;;;;;;-140.72;100.00;52386.81;4970507;28;19930;-69
2023/06/25 01:32:13;;;;;;;;;;;;;;;-140.72;100.00;52338.09;4988161;28;19952;-69
2023/06/25 01:34:38;;;;;;;;;;;;;;;-140.72;100.00;52317.81;4990401;28;19922;-69
2023/06/25 01:37:06;;;;;;;;;;;;;;;-140.72;100.00;52342.16;4972044;28;19929;-69
2023/06/25 01:39:31;;;;;;;;;;;;;;;-140.72;100.00;52376.66;4983951;28;19929;-69
2023/06/25 01:41:56;;;;;;;;;;;;;;;-140.72;100.00;52374.63;4987994;28;19922;-68
2023/06/25 01:44:26;;;;;;;;;;;;;;;-140.72;100.00;52354.34;4985707;28;20271;-69
2023/06/25 01:46:51;;;;;;;;;;;;;;;-140.72;100.00;52358.41;4986239;28;19922;-69
2023/06/25 01:49:16;;;;;;;;;;;;;;;-140.72;100.00;52372.59;4988242;28;20035;-68
2023/06/25 01:51:41;;;;;;;;;;;;;;;-140.72;100.00;52352.31;4987690;28;20399;-68
2023/06/25 01:54:06;;;;;;;;;;;;;;;-140.72;100.00;52382.75;4988400;28;20375;-68
2023/06/25 01:56:32;;;;;;;;;;;;;;;-140.72;100.00;52358.41;4983927;28;19962;-68
2023/06/25 01:58:57;;;;;;;;;;;;;;;-140.72;100.00;52364.47;4967530;28;20371;-68
2023/06/25 02:01:22;;;;;;;;;;;;;;;-140.72;100.00;52348.25;4984860;28;19922;-68
2023/06/25 02:03:47;;;;;;;;;;;;;;;-140.72;100.00;52340.13;4986888;28;20526;-68
2023/06/25 02:06:14;;;;;;;;;;;;;;;-140.72;100.00;52340.13;4986681;28;20011;-68
2023/06/25 02:08:39;;;;;;;;;;;;;;;-140.72;100.00;52346.22;4983050;28;20031;-68
2023/06/25 02:11:06;;;;;;;;;;;;;;;-140.72;100.00;52366.50;4984545;28;20457;-68
2023/06/25 02:13:31;;;;;;;;;;;;;;;-140.72;100.00;52386.81;4985674;28;19929;-68
2023/06/25 02:15:57;;;;;;;;;;;;;;;-140.72;100.00;52376.66;4987974;28;20291;-68
2023/06/25 02:18:22;;;;;;;;;;;;;;;-140.72;100.00;52376.66;4985649;28;20288;-68
2023/06/25 02:20:47;;;;;;;;;;;;;;;-140.72;100.00;52358.41;4988209;28;20345;-68
2023/06/25 02:23:12;;;;;;;;;;;;;;;-140.72;100.00;52370.56;4981522;28;19930;-68
2023/06/25 02:25:37;;;;;;;;;;;;;;;-140.72;100.00;52370.56;4986689;28;19925;-68
2023/06/25 02:28:03;;;;;;;;;;;;;;;-140.72;100.00;52358.41;4969395;28;19922;-68
2023/06/25 02:30:28;;;;;;;;;;;;;;;-140.72;100.00;52350.28;4983986;28;19921;-68
2023/06/25 02:32:53;;;;;;;;;;;;;;;-140.72;100.00;52362.44;4987304;28;19922;-68
2023/06/25 02:35:19;;;;;;;;;;;;;;;-140.72;100.00;52378.69;4987825;28;19926;-68
2023/06/25 02:37:45;;;;;;;;;;;;;;;-140.72;100.00;52358.41;4986514;28;20403;-68
2023/06/25 02:40:10;;;;;;;;;;;;;;;-140.72;100.00;52378.69;4986853;28;20372;-68
2023/06/25 02:42:36;;;;;;;;;;;;;;;-140.72;100.00;52378.69;4985419;28;19922;-68
2023/06/25 02:45:01;;;;;;;;;;;;;;;-140.72;100.00;52403.03;4985608;28;19922;-68
2023/06/25 02:47:27;;;;;;;;;;;;;;;-140.72;100.00;52374.63;4988424;28;19929;-68
2023/06/25 02:49:52;;;;;;;;;;;;;;;-140.72;100.00;52327.97;4970911;28;19930;-68
2023/06/25 02:52:17;;;;;;;;;;;;;;;-140.72;100.00;52390.84;4987401;28;19926;-68
2023/06/25 02:54:42;;;;;;;;;;;;;;;-140.72;100.00;52366.50;4987941;28;19922;-68
2023/06/25 02:57:08;;;;;;;;;;;;;;;-140.72;100.00;52342.16;4987776;28;20340;-68
2023/06/25 02:59:33;;;;;;;;;;;;;;;-140.72;100.00;52390.84;4981589;28;20391;-68
2023/06/25 03:01:58;;;;;;;;;;;;;;;-140.72;100.00;52366.50;4988186;28;19922;-68
2023/06/25 03:04:23;;;;;;;;;;;;;;;-140.72;100.00;52374.63;4990466;28;19930;-68
2023/06/25 03:06:48;;;;;;;;;;;;;;;-140.72;100.00;52390.84;4999503;28;19926;-68
2023/06/25 03:09:14;;;;;;;;;;;;;;;-140.72;100.00;52378.69;4994223;28;20001;-68
2023/06/25 03:11:39;;;;;;;;;;;;;;;-140.72;100.00;52382.75;4992188;28;19934;-69
2023/06/25 03:14:04;;;;;;;;;;;;;;;-140.72;100.00;52419.28;4987000;28;19922;-68
2023/06/25 03:16:30;;;;;;;;;;;;;;;-140.72;100.00;52360.44;4988598;28;19922;-68
2023/06/25 03:18:55;;;;;;;;;;;;;;;-140.72;100.00;52401.00;4987078;28;19926;-68
2023/06/25 03:21:20;;;;;;;;;;;;;;;-140.72;100.00;52419.28;4994997;28;20406;-68
2023/06/25 03:23:45;;;;;;;;;;;;;;;-140.72;100.00;52374.63;4991101;28;19945;-68
2023/06/25 03:26:11;;;;;;;;;;;;;;;-140.72;100.00;52374.63;4993756;28;20299;-68
2023/06/25 03:28:36;;;;;;;;;;;;;;;-140.72;100.00;52382.75;4990703;28;19932;-69
2023/06/25 03:31:01;;;;;;;;;;;;;;;-140.72;100.00;52423.31;4975383;28;19972;-68
2023/06/25 03:33:26;;;;;;;;;;;;;;;-140.72;100.00;52362.44;4991751;28;19952;-68
2023/06/25 03:35:52;;;;;;;;;;;;;;;-140.72;100.00;52382.75;4992031;28;19930;-68
2023/06/25 03:38:17;;;;;;;;;;;;;;;-140.72;100.00;52382.75;4988266;28;19926;-68
2023/06/25 03:40:42;;;;;;;;;;;;;;;-140.72;100.00;52390.84;4974121;28;20008;-68
2023/06/25 03:43:07;;;;;;;;;;;;;;;-140.72;100.00;52378.69;4990952;28;19926;-68
2023/06/25 03:45:32;;;;;;;;;;;;;;;-140.72;100.00;52378.69;4989338;28;19933;-68
2023/06/25 03:47:58;;;;;;;;;;;;;;;-140.72;100.00;52398.97;4972131;28;19937;-68
2023/06/25 03:50:23;;;;;;;;;;;;;;;-140.72;100.00;52372.59;4988651;28;19946;-68
2023/06/25 03:52:48;;;;;;;;;;;;;;;-140.72;100.00;52396.94;4987285;28;19945;-68
2023/06/25 03:55:13;;;;;;;;;;;;;;;-140.72;100.00;52407.09;4991377;28;20287;-68
2023/06/25 03:57:39;;;;;;;;;;;;;;;-140.72;100.00;52366.50;4987538;28;21213;-68
2023/06/25 04:00:04;;;;;;;;;;;;;;;-140.72;100.00;52409.13;4973212;28;19973;-68
2023/06/25 04:02:29;;;;;;;;;;;;;;;-140.72;100.00;52396.94;4991268;28;19929;-68
2023/06/25 04:04:54;;;;;;;;;;;;;;;-140.72;100.00;52396.94;4990015;28;19972;-68
2023/06/25 04:07:20;;;;;;;;;;;;;;;-140.72;100.00;52392.88;4988874;28;19918;-68
2023/06/25 04:09:45;;;;;;;;;;;;;;;-140.72;100.00;52423.31;4989877;28;20360;-68
2023/06/25 04:12:10;;;;;;;;;;;;;;;-140.72;100.00;52380.72;4988931;28;19945;-68
2023/06/25 04:14:35;;;;;;;;;;;;;;;-140.72;100.00;52392.88;4990225;28;19965;-68
2023/06/25 04:17:01;;;;;;;;;;;;;;;-140.72;100.00;52368.53;4990212;28;19922;-68
2023/06/25 04:19:26;;;;;;;;;;;;;;;-140.72;100.00;52376.66;4989877;28;19952;-68
2023/06/25 04:21:51;;;;;;;;;;;;;;;-140.72;100.00;52423.31;4984877;28;20553;-68
2023/06/25 04:24:16;;;;;;;;;;;;;;;-140.72;100.00;52394.91;4990582;28;20268;-69
2023/06/25 04:26:42;;;;;;;;;;;;;;;-140.72;100.00;52388.84;4988361;28;20372;-68
2023/06/25 04:29:07;;;;;;;;;;;;;;;-140.72;100.00;52366.50;4972288;28;19929;-68
2023/06/25 04:31:32;;;;;;;;;;;;;;;-140.72;100.00;52354.34;4987161;28;19936;-68
2023/06/25 04:33:57;;;;;;;;;;;;;;;-140.72;100.00;52372.59;4989195;28;20303;-68
2023/06/25 04:36:23;;;;;;;;;;;;;;;-140.72;100.00;52368.53;4990112;28;19937;-68
2023/06/25 04:38:48;;;;;;;;;;;;;;;-140.72;100.00;52376.66;4987642;28;20332;-68
2023/06/25 04:41:13;;;;;;;;;;;;;;;-140.72;100.00;52362.44;4987981;28;20356;-68
2023/06/25 04:43:38;;;;;;;;;;;;;;;-140.72;100.00;52390.84;4989406;28;19922;-69
2023/06/25 04:46:04;;;;;;;;;;;;;;;-140.72;100.00;52346.22;4986708;28;19922;-69
2023/06/25 04:48:29;;;;;;;;;;;;;;;-140.72;100.00;52386.81;4988357;28;19925;-68
2023/06/25 04:50:54;;;;;;;;;;;;;;;-140.72;100.00;52398.97;4995809;28;20001;-68
2023/06/25 04:53:19;;;;;;;;;;;;;;;-140.72;100.00;52374.63;4983032;28;20344;-68
2023/06/25 04:55:45;;;;;;;;;;;;;;;-140.72;100.00;52313.75;4992122;28;19962;-68
2023/06/25 04:58:10;;;;;;;;;;;;;;;-140.72;100.00;52376.66;4987510;28;19922;-68
2023/06/25 05:00:35;;;;;;;;;;;;;;;-140.72;100.00;52368.53;4986394;28;19926;-68
2023/06/25 05:03:00;;;;;;;;;;;;;;;-140.72;100.00;52358.41;4990071;28;19922;-68
2023/06/25 05:05:26;;;;;;;;;;;;;;;-140.72;100.00;52394.91;4987501;28;20896;-68
2023/06/25 05:07:51;;;;;;;;;;;;;;;-140.72;100.00;52366.50;4988506;28;19933;-68
2023/06/25 05:10:17;;;;;;;;;;;;;;;-140.72;100.00;52382.75;4986160;28;19921;-68
2023/06/25 05:12:43;;;;;;;;;;;;;;;-140.72;100.00;52360.44;4990421;28;19949;-69
2023/06/25 05:15:08;;;;;;;;;;;;;;;-140.72;100.00;52382.75;4987502;28;19984;-68
2023/06/25 05:17:33;;;;;;;;;;;;;;;-140.72;100.00;52362.44;4971699;28;20292;-68
2023/06/25 05:19:59;;;;;;;;;;;;;;;-140.72;100.00;52358.41;4986942;28;19929;-68
2023/06/25 05:22:24;;;;;;;;;;;;;;;-140.72;100.00;52366.50;4989316;28;19948;-69
2023/06/25 05:24:49;;;;;;;;;;;;;;;-140.72;100.00;52350.28;4988226;28;19981;-68
2023/06/25 05:27:14;;;;;;;;;;;;;;;-140.72;100.00;52374.63;4989260;28;20315;-69
2023/06/25 05:29:40;;;;;;;;;;;;;;;-140.72;100.00;52307.66;4988182;28;19922;-69
2023/06/25 05:32:05;;;;;;;;;;;;;;;-140.72;100.00;52340.13;4985648;28;19929;-69
2023/06/25 05:34:30;;;;;;;;;;;;;;;-140.72;100.00;52336.06;4990327;28;19929;-68
2023/06/25 05:36:56;;;;;;;;;;;;;;;-140.72;100.00;52346.22;4991965;28;19996;-69
2023/06/25 05:39:21;;;;;;;;;;;;;;;-140.72;100.00;52327.97;4987452;28;19922;-69
2023/06/25 05:41:46;;;;;;;;;;;;;;;-140.72;100.00;52352.31;4970683;28;19926;-69
2023/06/25 05:44:13;;;;;;;;;;;;;;;-140.72;100.00;52301.59;4985721;28;19921;-69
2023/06/25 05:46:38;;;;;;;;;;;;;;;-140.72;100.00;52346.22;4989123;28;19948;-69
2023/06/25 05:49:03;;;;;;;;;;;;;;;-140.72;100.00;52336.06;4987104;28;19929;-69
2023/06/25 05:51:28;;;;;;;;;;;;;;;-140.72;100.00;52348.25;4987579;28;19922;-69
2023/06/25 05:53:54;;;;;;;;;;;;;;;-140.72;100.00;52283.31;4989134;28;20344;-69
2023/06/25 05:56:19;;;;;;;;;;;;;;;-140.72;100.00;52332.03;4986712;28;19929;-69
2023/06/25 05:58:44;;;;;;;;;;;;;;;-140.72;100.00;52338.09;4987847;28;19933;-69
2023/06/25 06:01:09;;;;;;;;;;;;;;;-140.72;100.00;52273.19;4986358;28;19921;-69
2023/06/25 06:03:35;;;;;;;;;;;;;;;-140.72;100.00;52277.22;4987698;28;19941;-70
2023/06/25 06:06:00;;;;;;;;;;;;;;;-140.72;100.00;52265.06;4987433;28;19926;-69
2023/06/25 06:08:25;;;;;;;;;;;;;;;-140.72;100.00;52325.94;4986195;28;19925;-69
2023/06/25 06:10:51;;;;;;;;;;;;;;;-140.72;100.00;52271.16;4986244;28;19922;-69
2023/06/25 06:13:16;;;;;;;;;;;;;;;-140.72;100.00;52295.50;4986358;28;19922;-69
2023/06/25 06:15:41;;;;;;;;;;;;;;;-140.72;100.00;52273.19;4986036;28;19929;-69
2023/06/25 06:18:07;;;;;;;;;;;;;;;-140.72;100.00;52279.25;4964901;28;19965;-69
2023/06/25 06:20:32;;;;;;;;;;;;;;;-140.72;100.00;52279.25;4986264;28;20622;-69
2023/06/25 06:22:58;;;;;;;;;;;;;;;-140.72;100.00;52269.13;4986794;28;20020;-69
2023/06/25 06:25:23;;;;;;;;;;;;;;;-140.72;100.00;52261.00;4985736;28;19921;-69
2023/06/25 06:27:49;;;;;;;;;;;;;;;-140.72;100.00;52279.25;4987029;28;19929;-69
2023/06/25 06:30:14;;;;;;;;;;;;;;;-140.72;100.00;52240.72;4985301;28;20323;-69
2023/06/25 06:32:39;;;;;;;;;;;;;;;-140.72;100.00;52293.47;4984723;28;20508;-69
2023/06/25 06:35:05;;;;;;;;;;;;;;;-140.72;100.00;52271.16;4982498;28;19992;-69
2023/06/25 06:37:30;;;;;;;;;;;;;;;-140.72;81.75;52224.47;4988958;28;20020;-69
2023/06/25 06:39:55;;;;;;;;;;;;;;;-140.72;45.32;52281.28;4994206;28;20300;-72
2023/06/25 06:42:20;;;;;;;;;;;;;;;-140.72;31.56;52216.34;4995083;28;19922;-77
2023/06/25 06:47:51;;;;;;;;;;;;;;;-140.72;38.41;52234.63;4990113;28;19945;-77
2023/06/25 06:50:16;;;;;;;;;;;;;;;-140.72;24.21;52220.41;4988513;28;20076;-77
2023/06/25 06:52:41;;;;;;;;;;;;;;;-140.72;14.30;52236.66;4987762;28;19922;-76
2023/06/25 06:55:07;;;;;;;;;;;;;;;-140.72;0.00;52240.72;4970236;28;20016;-75
2023/06/25 06:57:36;;;;;;;;;;;;;;;-140.72;0.00;52232.59;4989125;28;20037;-75
2023/06/25 07:00:01;;;;;;;;;;;;;;;-140.72;0.00;52214.34;4981935;28;19921;-75
2023/06/25 07:02:26;;;;;;;;;;;;;;;-140.72;0.00;52224.47;4963305;28;19941;-76
2023/06/25 07:04:52;;;;;;;;;;;;;;;-140.72;0.00;52234.63;4981173;28;20047;-75
2023/06/25 07:07:17;;;;;;;;;;;;;;;-140.72;0.00;52200.13;4967229;28;19922;-75
2023/06/25 07:09:53;;;;;;;;;;;;;;;-140.72;0.00;52208.25;4981201;28;19952;-74
2023/06/25 07:12:18;;;;;;;;;;;;;;;-140.72;0.00;52196.06;4963904;28;19937;-74
2023/06/25 07:14:44;;;;;;;;;;;;;;;-140.72;0.00;52147.38;4967720;28;19981;-74
2023/06/25 07:17:09;;;;;;;;;;;;;;;-140.72;0.00;52175.78;4964854;28;20391;-74
2023/06/25 07:19:34;;;;;;;;;;;;;;;-140.72;0.00;52165.63;4982758;28;19922;-71
2023/06/25 07:21:59;;;;;;;;;;;;;;;-140.72;0.00;52145.34;4983928;28;19981;-75
2023/06/25 07:24:24;;;;;;;;;;;;;;;-140.72;0.00;52163.59;4983313;28;20017;-75
2023/06/25 07:26:50;;;;;;;;;;;;;;;-140.72;0.00;52167.66;4986228;28;19969;-75
2023/06/25 07:29:15;;;;;;;;;;;;;;;-140.72;0.00;52157.53;4984035;28;20104;-75
2023/06/25 07:31:40;;;;;;;;;;;;;;;-140.72;0.00;52173.75;4970329;28;19921;-75
2023/06/25 07:34:05;;;;;;;;;;;;;;;-140.72;0.00;52167.66;4989226;28;19976;-75
2023/06/25 07:36:31;;;;;;;;;;;;;;;-140.72;0.00;52196.06;4975025;28;19970;-75
2023/06/25 07:39:02;;;;;;;;;;;;;;;-140.72;0.00;52141.28;4985216;28;19922;-75
2023/06/25 07:41:27;;;;;;;;;;;;;;;-140.72;0.00;52200.13;4969736;28;19968;-74
2023/06/25 07:43:55;;;;;;;;;;;;;;;-140.72;0.00;52151.44;4981827;28;19973;-76
2023/06/25 07:46:20;;;;;;;;;;;;;;;-140.72;0.00;52171.72;4968331;28;19976;-74
2023/06/25 07:48:45;;;;;;;;;;;;;;;-140.72;0.00;52149.41;4985638;28;20410;-75
2023/06/25 07:51:10;;;;;;;;;;;;;;;-140.72;0.00;52135.19;4983987;28;19926;-76
2023/06/25 07:53:35;;;;;;;;;;;;;;;-140.72;0.00;52108.81;4984293;28;20372;-75
2023/06/25 07:56:01;;;;;;;;;;;;;;;-140.72;0.00;52102.75;4964968;28;20344;-75
2023/06/25 07:58:26;;;;;;;;;;;;;;;-140.72;0.00;52092.59;4984681;28;19921;-76
2023/06/25 08:00:51;;;;;;;;;;;;;;;-140.72;0.00;52137.22;4986513;28;19940;-75
2023/06/25 08:03:17;;;;;;;;;;;;;;;-140.72;0.00;52114.91;4968194;28;19922;-76
2023/06/25 08:05:42;;;;;;;;;;;;;;;-140.72;0.00;52106.78;4973313;28;19933;-71
2023/06/25 08:08:07;;;;;;;;;;;;;;;-140.72;0.00;52100.72;4994996;28;19926;-76
2023/06/25 08:10:32;;;;;;;;;;;;;;;-140.72;0.00;52110.84;4990307;28;19980;-75
2023/06/25 08:12:57;;;;;;;;;;;;;;;-140.72;0.00;52070.28;4966760;28;20036;-75
2023/06/25 08:15:23;;;;;;;;;;;;;;;-140.72;0.00;52052.00;4990363;28;19993;-74
2023/06/25 08:17:48;;;;;;;;;;;;;;;-140.72;0.00;52029.69;4987898;28;19921;-75
2023/06/25 08:20:13;;;;;;;;;;;;;;;-140.72;0.00;52054.03;4989302;28;19930;-75
2023/06/25 08:22:38;;;;;;;;;;;;;;;-140.72;0.00;52070.28;4989698;28;20016;-75
2023/06/25 08:25:17;;;;;;;;;;;;;;;-140.72;0.00;52070.28;4994214;28;19922;-75
2023/06/25 08:27:43;;;;;;;;;;;;;;;-140.72;0.00;52037.81;5007854;28;20012;-75
2023/06/25 08:30:08;;;;;;;;;;;;;;;-140.72;0.00;52021.56;4994364;28;19977;-75
2023/06/25 08:32:33;;;;;;;;;;;;;;;-140.72;0.00;52025.63;4972809;28;19940;-75
2023/06/25 08:34:59;;;;;;;;;;;;;;;-140.72;0.00;52035.78;4981195;28;20314;-75
2023/06/25 08:37:24;;;;;;;;;;;;;;;-140.72;0.00;52017.53;4973559;28;20213;-75
2023/06/25 08:39:49;;;;;;;;;;;;;;;-140.72;0.00;51997.22;4988217;28;19929;-76
2023/06/25 08:42:14;;;;;;;;;;;;;;;-140.72;0.00;52033.75;4991336;28;19949;-79
2023/06/25 08:44:40;;;;;;;;;;;;;;;-140.72;0.00;51981.00;5003060;28;19922;-77
2023/06/25 08:47:06;;;;;;;;;;;;;;;-140.72;0.00;51985.06;4993913;28;19980;-77
2023/06/25 08:49:32;;;;;;;;;;;;;;;-140.72;0.00;52013.47;4995666;28;20076;-76
2023/06/25 08:51:59;;;;;;;;;;;;;;;-140.72;0.00;51997.22;4977605;28;20475;-73
2023/06/25 08:54:24;;;;;;;;;;;;;;;-140.72;0.00;51981.00;4990618;28;20292;-74
2023/06/25 08:56:49;;;;;;;;;;;;;;;-140.72;0.00;51956.66;4991013;28;19929;-74
2023/06/25 08:59:15;;;;;;;;;;;;;;;-140.72;0.00;51950.56;4990556;28;19918;-74
2023/06/25 09:01:40;;;;;;;;;;;;;;;-140.72;0.00;51948.53;4987113;28;19960;-74
2023/06/25 09:04:05;;;;;;;;;;;;;;;-140.72;0.00;51910.00;4992693;28;19929;-75
2023/06/25 09:06:37;;;;;;;;;;;;;;;-140.72;0.00;51938.41;4985872;28;19922;-74
2023/06/25 09:09:03;;;;;;;;;;;;;;;-140.72;0.00;51920.13;4986059;28;20283;-74
2023/06/25 09:11:31;;;;;;;;;;;;;;;-140.72;0.00;51916.06;4994415;28;19959;-74
2023/06/25 09:13:58;;;;;;;;;;;;;;;-140.72;0.00;51891.72;4995490;28;19918;-74
2023/06/25 09:16:23;;;;;;;;;;;;;;;-140.72;0.00;51912.03;4987044;28;20300;-74
2023/06/25 09:18:49;;;;;;;;;;;;;;;-140.72;0.00;51903.91;4967574;28;19922;-74
2023/06/25 09:21:14;;;;;;;;;;;;;;;-140.72;0.00;51924.19;4984507;28;19934;-73
2023/06/25 09:23:39;;;;;;;;;;;;;;;-140.72;0.00;51899.84;4990075;28;19922;-72
2023/06/25 09:26:06;;;;;;;;;;;;;;;-140.72;0.00;51914.03;4989823;28;19924;-78
2023/06/25 09:28:31;;;;;;;;;;;;;;;-140.72;0.00;51838.97;4992557;28;19960;-75
2023/06/25 09:30:59;;;;;;;;;;;;;;;-140.72;0.00;51826.81;4977152;28;21361;-74
2023/06/25 09:33:32;;;;;;;;;;;;;;;-140.72;0.00;51828.84;4974747;28;19984;-76
2023/06/25 09:35:59;;;;;;;;;;;;;;;-140.72;0.00;51780.16;4990909;28;19928;-75
2023/06/25 09:38:24;;;;;;;;;;;;;;;-140.72;0.00;51778.13;4984927;28;19926;-75
2023/06/25 09:40:49;;;;;;;;;;;;;;;-140.72;0.00;51741.59;4984935;28;20395;-76
2023/06/25 09:43:14;;;;;;;;;;;;;;;-140.72;0.00;51753.78;4987081;28;19928;-76
2023/06/25 09:45:40;;;;;;;;;;;;;;;-140.72;0.00;51747.69;4993450;28;20375;-76
2023/06/25 09:48:05;;;;;;;;;;;;;;;-140.72;0.00;51705.06;4993388;28;20273;-75
2023/06/25 09:50:33;;;;;;;;;;;;;;;-140.72;0.00;51737.53;4993487;28;19925;-74
2023/06/25 09:52:59;;;;;;;;;;;;;;;-140.72;0.00;51715.22;4993235;28;19972;-76
2023/06/25 09:55:26;;;;;;;;;;;;;;;-140.72;0.00;51810.56;4992547;28;19922;-75
2023/06/25 09:57:52;;;;;;;;;;;;;;;-140.72;0.00;51745.66;4987460;28;19929;-74
2023/06/25 10:00:18;;;;;;;;;;;;;;;-140.72;0.00;51688.84;4988296;28;19918;-75
2023/06/25 10:02:44;;;;;;;;;;;;;;;-140.72;0.00;51690.88;4983453;28;19952;-74
2023/06/25 10:05:10;;;;;;;;;;;;;;;-140.72;0.00;51715.22;4963361;28;20416;-74
2023/06/25 10:07:35;;;;;;;;;;;;;;;-140.72;0.00;51644.22;4991441;28;19918;-74
2023/06/25 10:10:00;;;;;;;;;;;;;;;-140.72;0.00;51636.09;4986469;28;19925;-75
2023/06/25 10:12:25;;;;;;;;;;;;;;;-140.72;0.00;51634.06;5003940;28;19914;-74
2023/06/25 10:14:52;;;;;;;;;;;;;;;-140.72;0.00;51707.09;5002812;28;19928;-74
2023/06/25 10:17:19;;;;;;;;;;;;;;;-140.72;0.00;51668.56;4975321;28;19975;-75
2023/06/25 10:19:52;;;;;;;;;;;;;;;-140.72;0.00;51611.75;4975028;28;20002;-75
2023/06/25 10:22:20;;;;;;;;;;;;;;;-140.72;0.00;51524.53;4990047;28;19922;-75
2023/06/25 10:24:50;;;;;;;;;;;;;;;-140.72;0.00;51599.59;4970888;28;20391;-75
2023/06/25 10:27:24;;;;;;;;;;;;;;;-140.72;0.00;51617.84;4990638;28;19966;-75
2023/06/25 10:29:49;;;;;;;;;;;;;;;-140.72;0.00;51550.91;4973588;28;19925;-75
2023/06/25 10:32:19;;;;;;;;;;;;;;;-140.72;0.00;51526.56;4993403;28;19922;-74
2023/06/25 10:34:50;;;;;;;;;;;;;;;-140.72;0.00;51498.16;4993165;28;20280;-75
2023/06/25 10:37:16;;;;;;;;;;;;;;;-140.72;0.00;51518.44;4967492;28;19922;-75
2023/06/25 10:39:41;;;;;;;;;;;;;;;-140.72;0.00;51502.22;4993744;28;19940;-75
2023/06/25 10:42:07;;;;;;;;;;;;;;;-140.72;0.00;51492.06;4974298;28;19921;-76
2023/06/25 10:44:32;;;;;;;;;;;;;;;-140.72;0.00;51561.03;4990424;28;20030;-75
2023/06/25 10:47:01;;;;;;;;;;;;;;;-140.72;0.00;51508.28;4973483;28;19926;-75
2023/06/25 10:49:27;;;;;;;;;;;;;;;-140.72;0.00;51451.50;4997800;28;20345;-75
2023/06/25 10:51:55;;;;;;;;;;;;;;;-140.72;0.00;51461.63;4969895;28;19966;-75
2023/06/25 10:54:21;;;;;;;;;;;;;;;-140.72;0.00;51427.16;4992154;28;19917;-74
2023/06/25 10:56:46;;;;;;;;;;;;;;;-140.72;0.00;51498.16;4992363;28;19926;-75
2023/06/25 10:59:12;;;;;;;;;;;;;;;-140.72;0.00;51421.06;4992698;28;19926;-76
2023/06/25 11:01:37;;;;;;;;;;;;;;;-140.72;0.00;51522.50;4988676;28;19918;-76
2023/06/25 11:04:12;;;;;;;;;;;;;;;-140.72;0.00;51540.75;4987246;28;19922;-76
2023/06/25 11:06:37;;;;;;;;;;;;;;;-140.72;0.00;51542.78;4990504;28;19945;-76
2023/06/25 11:09:03;;;;;;;;;;;;;;;-140.72;0.00;51471.78;4990919;28;20457;-76
2023/06/25 11:11:28;;;;;;;;;;;;;;;-140.72;0.00;51563.06;4992332;28;20355;-76
2023/06/25 11:13:54;;;;;;;;;;;;;;;-140.72;0.00;51619.88;4973867;28;19925;-76
2023/06/25 11:16:19;;;;;;;;;;;;;;;-140.72;0.00;51488.00;4989926;28;19922;-76
2023/06/25 11:18:46;;;;;;;;;;;;;;;-140.72;0.00;51502.22;4967552;28;19922;-76
2023/06/25 11:21:13;;;;;;;;;;;;;;;-140.72;0.00;51455.56;4993645;28;19922;-76
2023/06/25 11:23:42;;;;;;;;;;;;;;;-140.72;0.00;51435.25;4990360;28;19950;-76
2023/06/25 11:26:11;;;;;;;;;;;;;;;-140.72;0.00;51492.06;4974581;28;19922;-73
2023/06/25 11:28:37;;;;;;;;;;;;;;;-140.72;0.00;51457.56;4972629;28;19923;-72
2023/06/25 11:31:02;;;;;;;;;;;;;;;-140.72;0.00;51492.06;4983176;28;20037;-73
2023/06/25 11:33:27;;;;;;;;;;;;;;;-140.72;0.00;51524.53;4987480;28;19929;-73
2023/06/25 11:36:04;;;;;;;;;;;;;;;-140.72;0.00;51494.09;4990446;28;21676;-73
2023/06/25 11:38:29;;;;;;;;;;;;;;;-140.72;0.00;51494.09;4982469;28;19981;-72
2023/06/25 11:40:58;;;;;;;;;;;;;;;-140.72;0.00;51561.03;4990855;28;19933;-72
2023/06/25 11:43:24;;;;;;;;;;;;;;;-140.72;0.00;51510.31;4994155;28;19918;-74
2023/06/25 11:45:49;;;;;;;;;;;;;;;-140.72;0.00;51498.16;4993198;28;20017;-73
2023/06/25 11:48:16;;;;;;;;;;;;;;;-140.72;0.00;51591.47;4977498;28;19969;-73
2023/06/25 11:50:42;;;;;;;;;;;;;;;-140.72;0.00;51536.69;4992707;28;19924;-73
2023/06/25 11:53:08;;;;;;;;;;;;;;;-140.72;0.00;51548.88;4988854;28;20304;-72
2023/06/25 11:55:33;;;;;;;;;;;;;;;-140.72;0.00;51508.28;4987174;28;19921;-73
2023/06/25 11:57:58;;;;;;;;;;;;;;;-140.72;0.00;51528.59;5003918;28;19985;-73
2023/06/25 12:00:23;;;;;;;;;;;;;;;-140.72;0.00;51483.94;5002651;28;19970;-73
2023/06/25 12:02:49;;;;;;;;;;;;;;;-140.72;0.00;51467.72;4996688;28;20004;-73
2023/06/25 12:05:14;;;;;;;;;;;;;;;-140.72;0.00;51561.03;4993545;28;20288;-72
2023/06/25 12:07:39;;;;;;;;;;;;;;;-140.72;0.00;51522.50;5000317;28;20303;-72
2023/06/25 12:10:05;;;;;;;;;;;;;;;-140.72;0.00;51498.16;4993251;28;20072;-72
2023/06/25 12:12:30;;;;;;;;;;;;;;;-140.72;0.00;51481.91;4992085;28;19925;-73
2023/06/25 12:14:55;;;;;;;;;;;;;;;-140.72;0.00;51593.50;4992173;28;19918;-73
2023/06/25 12:17:20;;;;;;;;;;;;;;;-140.72;0.00;51575.25;4977191;28;19926;-73
2023/06/25 12:19:46;;;;;;;;;;;;;;;-140.72;0.00;51538.72;4974734;28;20012;-70
2023/06/25 12:22:11;;;;;;;;;;;;;;;-140.72;0.00;51544.81;4988136;28;20400;-70